Time;durP1;ratioP1;P1;durP2;ratioP2;P2;SDS_P1;SDS_P2;PMS_P1;PMS_P2;Temp;Humidity;BMP_temperature;BMP_pressure;BME280_temperature;BME280_humidity;BME280_pressure;Samples;Min_cycle;Max_cycle;Signal;HPM_P1;HPM_P2
2021/09/10 00:00:10;;;;;;;12.18;10.40;;;;;;;13.97;100.00;100507.16;5017819;28;20049;-86
2021/09/10 00:02:37;;;;;;;14.88;10.48;;;;;;;13.98;100.00;100509.75;5018708;28;20131;-84
2021/09/10 00:05:06;;;;;;;15.15;11.30;;;;;;;13.99;100.00;100519.44;5033499;28;20061;-82
2021/09/10 00:07:33;;;;;;;14.32;11.23;;;;;;;14.00;100.00;100515.00;5082415;23;20541;-79
2021/09/10 00:10:00;;;;;;;14.10;10.88;;;;;;;14.01;100.00;100517.59;4995786;28;20045;-79
2021/09/10 00:12:26;;;;;;;12.23;10.93;;;;;;;14.07;100.00;100513.84;5002995;28;20399;-78
2021/09/10 00:14:53;;;;;;;12.13;10.32;;;;;;;14.09;100.00;100512.84;5028454;28;20041;-79
2021/09/10 00:17:20;;;;;;;11.77;10.55;;;;;;;14.06;100.00;100506.81;5000959;28;20048;-79
2021/09/10 00:19:47;;;;;;;12.10;10.60;;;;;;;14.09;100.00;100504.03;5007084;28;20513;-79
2021/09/10 00:22:14;;;;;;;11.30;9.95;;;;;;;14.09;100.00;100502.25;4996831;28;20049;-79
2021/09/10 00:24:40;;;;;;;12.65;10.18;;;;;;;14.09;100.00;100502.25;5043118;28;20032;-79
2021/09/10 00:27:07;;;;;;;12.38;10.18;;;;;;;14.10;100.00;100503.09;4993944;28;20045;-79
2021/09/10 00:29:34;;;;;;;13.00;10.93;;;;;;;14.11;100.00;100496.84;4995384;28;20444;-78
2021/09/10 00:32:00;;;;;;;15.63;10.43;;;;;;;14.06;100.00;100498.84;5025498;28;20548;-78
2021/09/10 00:34:27;;;;;;;13.73;10.95;;;;;;;14.04;100.00;100498.00;5010062;28;20040;-79
2021/09/10 00:36:54;;;;;;;12.65;10.65;;;;;;;14.03;100.00;100502.44;5016972;28;20122;-79
2021/09/10 00:39:22;;;;;;;14.43;10.32;;;;;;;14.09;100.00;100498.72;5010211;28;20051;-79
2021/09/10 00:41:49;;;;;;;16.42;11.75;;;;;;;14.03;100.00;100498.94;5009712;28;20053;-79
2021/09/10 00:44:16;;;;;;;14.88;10.88;;;;;;;14.01;100.00;100495.47;5017754;28;20041;-78
2021/09/10 00:46:43;;;;;;;14.18;10.98;;;;;;;14.02;100.00;100499.88;5032147;28;20033;-79
2021/09/10 00:49:10;;;;;;;13.18;11.20;;;;;;;13.98;100.00;100500.91;5016032;28;20049;-79
2021/09/10 00:51:37;;;;;;;12.70;11.13;;;;;;;13.93;100.00;100503.72;5031773;28;20047;-79
2021/09/10 00:54:04;;;;;;;13.25;10.18;;;;;;;13.91;100.00;100502.91;4996195;28;20067;-79
2021/09/10 00:56:30;;;;;;;11.30;10.15;;;;;;;13.89;100.00;100499.47;5017895;28;20635;-78
2021/09/10 00:59:00;;;;;;;12.35;9.90;;;;;;;13.86;100.00;100498.69;5032071;28;20049;-79
2021/09/10 01:01:27;;;;;;;12.05;10.00;;;;;;;13.81;100.00;100493.56;5034451;28;20124;-79
2021/09/10 01:03:55;;;;;;;12.13;10.30;;;;;;;13.82;100.00;100494.44;5010208;28;20099;-80
2021/09/10 01:06:23;;;;;;;11.95;9.65;;;;;;;13.78;100.00;100497.19;5011763;28;20118;-80
2021/09/10 01:08:51;;;;;;;11.85;10.43;;;;;;;13.80;100.00;100499.81;4998797;28;20048;-80
2021/09/10 01:11:36;;;;;;;11.50;10.30;;;;;;;13.78;100.00;100501.63;5033564;28;20041;-80
2021/09/10 01:14:03;;;;;;;12.13;10.38;;;;;;;13.78;100.00;100491.88;5016718;28;20041;-80
2021/09/10 01:16:30;;;;;;;14.75;10.73;;;;;;;13.78;100.00;100494.53;5016395;28;20041;-80
2021/09/10 01:18:56;;;;;;;12.77;9.57;;;;;;;13.70;100.00;100499.25;5001365;28;20055;-80
2021/09/10 01:21:23;;;;;;;12.20;9.93;;;;;;;13.76;100.00;100503.47;5014134;28;20053;-80
2021/09/10 01:23:50;;;;;;;11.55;10.18;;;;;;;13.72;100.00;100501.88;5013972;28;20041;-80
2021/09/10 01:26:16;;;;;;;13.88;10.50;;;;;;;13.72;100.00;100508.03;5024974;28;20033;-80
2021/09/10 01:28:43;;;;;;;11.98;10.68;;;;;;;13.71;100.00;100501.00;5001877;28;20057;-80
2021/09/10 01:31:10;;;;;;;13.80;10.20;;;;;;;13.73;100.00;100499.16;5013221;28;20521;-81
2021/09/10 01:33:37;;;;;;;12.27;10.20;;;;;;;13.78;100.00;100493.66;5023993;28;20474;-81
2021/09/10 01:36:03;;;;;;;16.48;11.73;;;;;;;13.82;100.00;100505.06;5002374;28;20239;-80
2021/09/10 01:38:30;;;;;;;16.77;11.18;;;;;;;13.77;100.00;100507.84;5016701;28;20057;-79
2021/09/10 01:40:57;;;;;;;12.07;10.25;;;;;;;13.73;100.00;100503.59;5013588;28;20383;-80
2021/09/10 01:43:23;;;;;;;12.75;10.05;;;;;;;13.73;100.00;100500.94;4984395;28;20067;-79
2021/09/10 01:45:50;;;;;;;15.23;10.77;;;;;;;13.74;100.00;100503.53;4997514;28;20513;-80
2021/09/10 01:48:17;;;;;;;14.77;10.27;;;;;;;13.73;100.00;100491.19;5008352;28;20417;-80
2021/09/10 01:50:44;;;;;;;13.25;10.30;;;;;;;13.72;100.00;100497.41;5026527;28;20069;-80
2021/09/10 01:53:10;;;;;;;11.60;10.02;;;;;;;13.73;100.00;100499.16;4990974;28;20041;-80
2021/09/10 01:55:37;;;;;;;11.90;10.38;;;;;;;13.74;100.00;100502.66;5029757;28;20128;-80
2021/09/10 01:58:04;;;;;;;11.18;10.05;;;;;;;13.72;100.00;100505.38;5013385;28;20041;-79
2021/09/10 02:00:31;;;;;;;11.68;10.45;;;;;;;13.68;100.00;100501.09;5016452;28;20067;-80
2021/09/10 02:02:57;;;;;;;12.65;10.20;;;;;;;13.69;100.00;100502.81;4999073;28;20075;-80
2021/09/10 02:05:24;;;;;;;12.45;10.30;;;;;;;13.76;100.00;100508.78;4993557;28;20041;-80
2021/09/10 02:07:51;;;;;;;13.23;10.90;;;;;;;13.69;100.00;100499.31;4996327;28;20053;-80
2021/09/10 02:10:18;;;;;;;12.48;10.90;;;;;;;13.67;100.00;100501.16;5026610;28;20041;-80
2021/09/10 02:12:45;;;;;;;11.93;10.25;;;;;;;13.62;100.00;100504.00;5009691;28;20049;-80
2021/09/10 02:15:12;;;;;;;11.98;10.10;;;;;;;13.61;100.00;100501.38;5016146;28;20617;-80
2021/09/10 02:17:39;;;;;;;12.07;10.65;;;;;;;13.59;100.00;100504.06;5012005;28;20233;-80
2021/09/10 02:20:06;;;;;;;11.40;10.13;;;;;;;13.56;100.00;100504.19;5026306;28;20049;-80
2021/09/10 02:22:33;;;;;;;12.85;11.32;;;;;;;13.53;100.00;100506.94;5046920;28;20040;-80
2021/09/10 02:24:59;;;;;;;13.75;10.23;;;;;;;13.50;100.00;100502.63;5000525;28;20513;-80
2021/09/10 02:27:26;;;;;;;11.73;10.45;;;;;;;13.47;100.00;100499.22;5015264;28;20127;-80
2021/09/10 02:29:53;;;;;;;12.15;10.18;;;;;;;13.46;100.00;100503.66;4998232;28;20144;-80
2021/09/10 02:32:20;;;;;;;11.20;9.73;;;;;;;13.43;100.00;100498.44;4985507;28;20049;-80
2021/09/10 02:34:46;;;;;;;12.35;10.05;;;;;;;13.44;100.00;100496.66;5029283;28;20486;-80
2021/09/10 02:37:13;;;;;;;11.93;10.70;;;;;;;13.42;100.00;100488.75;5008169;28;20540;-80
2021/09/10 02:39:40;;;;;;;11.95;9.90;;;;;;;13.43;100.00;100486.94;4999852;28;20041;-81
2021/09/10 02:42:07;;;;;;;13.25;10.85;;;;;;;13.44;100.00;100488.69;5009464;28;20049;-80
2021/09/10 02:44:33;;;;;;;11.27;10.00;;;;;;;13.35;100.00;100483.69;4999960;28;20051;-80
2021/09/10 02:47:00;;;;;;;12.38;10.93;;;;;;;13.41;100.00;100489.66;4998749;28;20726;-80
2021/09/10 02:49:27;;;;;;;11.68;10.48;;;;;;;13.42;100.00;100491.41;5015832;28;20071;-80
2021/09/10 02:51:54;;;;;;;12.82;10.27;;;;;;;13.38;100.00;100484.47;5015897;28;20045;-79
2021/09/10 02:54:20;;;;;;;12.35;9.88;;;;;;;13.38;100.00;100489.78;5031227;28;20045;-79
2021/09/10 02:56:47;;;;;;;12.63;10.63;;;;;;;13.41;100.00;100494.09;5028445;28;20041;-80
2021/09/10 02:59:14;;;;;;;12.70;10.38;;;;;;;13.29;100.00;100490.09;4987474;28;20585;-80
2021/09/10 03:01:44;;;;;;;12.65;10.63;;;;;;;13.25;100.00;100501.72;5011556;28;20037;-80
2021/09/10 03:04:12;;;;;;;12.00;10.23;;;;;;;13.21;100.00;100497.47;5015226;28;20099;-80
2021/09/10 03:06:38;;;;;;;10.60;9.50;;;;;;;13.19;100.00;100485.97;5029659;28;20406;-79
2021/09/10 03:09:07;;;;;;;12.15;10.82;;;;;;;13.19;100.00;100491.28;5043333;28;20045;-80
2021/09/10 03:11:36;;;;;;;13.52;10.20;;;;;;;13.21;100.00;100492.16;5028744;28;20067;-79
2021/09/10 03:14:03;;;;;;;11.35;10.15;;;;;;;13.16;100.00;100488.75;5011101;28;21566;-79
2021/09/10 03:16:31;;;;;;;16.20;10.60;;;;;;;13.12;100.00;100485.34;4987672;28;20036;-79
2021/09/10 03:18:59;;;;;;;12.40;10.13;;;;;;;13.11;100.00;100480.06;5029132;28;20413;-79
2021/09/10 03:21:26;;;;;;;14.07;10.07;;;;;;;13.10;100.00;100488.94;5030040;28;20060;-80
2021/09/10 03:23:53;;;;;;;11.20;10.00;;;;;;;13.02;100.00;100481.25;5030924;28;20102;-80
2021/09/10 03:26:20;;;;;;;13.45;10.52;;;;;;;13.03;100.00;100485.66;5012470;28;20043;-79
2021/09/10 03:28:46;;;;;;;16.77;10.57;;;;;;;13.01;100.00;100497.22;5002514;28;20621;-79
2021/09/10 03:31:13;;;;;;;11.27;10.07;;;;;;;13.02;100.00;100493.63;5026610;28;20034;-79
2021/09/10 03:33:40;;;;;;;11.88;10.15;;;;;;;13.02;100.00;100483.03;5009142;28;20049;-80
2021/09/10 03:36:06;;;;;;;12.65;10.65;;;;;;;13.02;100.00;100475.94;5008046;28;20041;-80
2021/09/10 03:38:33;;;;;;;11.65;10.43;;;;;;;13.02;100.00;100477.72;5028467;28;20113;-81
2021/09/10 03:41:00;;;;;;;12.25;10.32;;;;;;;13.02;100.00;100475.06;5025312;28;20123;-79
2021/09/10 03:43:26;;;;;;;11.25;10.05;;;;;;;13.08;100.00;100483.69;5022143;28;20410;-80
2021/09/10 03:45:54;;;;;;;12.57;10.45;;;;;;;13.00;100.00;100476.91;5013325;28;20033;-79
2021/09/10 03:48:23;;;;;;;12.52;10.18;;;;;;;12.95;100.00;100477.94;5009703;28;20038;-79
2021/09/10 03:50:50;;;;;;;17.33;10.80;;;;;;;12.92;100.00;100478.03;5029393;28;20081;-80
2021/09/10 03:53:17;;;;;;;11.80;10.13;;;;;;;12.88;100.00;100473.75;5010711;28;20051;-79
2021/09/10 03:55:43;;;;;;;20.48;11.93;;;;;;;12.93;100.00;100473.59;5022881;28;20041;-80
2021/09/10 03:58:10;;;;;;;13.23;10.77;;;;;;;12.93;100.00;100479.75;4986739;28;20037;-79
2021/09/10 04:00:36;;;;;;;11.40;9.77;;;;;;;12.89;100.00;100483.44;4993155;28;20455;-80
2021/09/10 04:03:04;;;;;;;13.43;11.07;;;;;;;12.85;100.00;100486.22;5024420;28;20049;-80
2021/09/10 04:05:31;;;;;;;13.38;11.98;;;;;;;12.83;100.00;100486.28;5021672;28;20140;-79
2021/09/10 04:07:58;;;;;;;14.23;11.13;;;;;;;12.83;100.00;100488.06;5025356;28;20506;-79
2021/09/10 04:10:24;;;;;;;16.65;12.57;;;;;;;12.82;100.00;100486.34;5030617;28;20040;-80
2021/09/10 04:12:53;;;;;;;13.45;11.05;;;;;;;12.83;100.00;100488.94;4994172;28;20050;-79
2021/09/10 04:15:20;;;;;;;12.82;10.43;;;;;;;12.78;100.00;100495.28;4999108;28;20051;-79
2021/09/10 04:17:47;;;;;;;16.08;12.00;;;;;;;12.77;100.00;100494.44;5026439;28;20034;-80
2021/09/10 04:20:14;;;;;;;11.48;10.27;;;;;;;12.76;100.00;100502.44;5010748;28;20677;-79
2021/09/10 04:22:41;;;;;;;13.30;10.90;;;;;;;12.72;100.00;100499.03;5027830;28;20570;-79
2021/09/10 04:25:08;;;;;;;11.18;10.02;;;;;;;12.75;100.00;100496.25;5017879;28;20045;-79
2021/09/10 04:27:35;;;;;;;12.23;10.55;;;;;;;12.73;100.00;100506.06;5015435;28;20049;-80
2021/09/10 04:30:03;;;;;;;14.32;11.13;;;;;;;12.72;100.00;100501.69;5017223;28;22194;-79
2021/09/10 04:32:30;;;;;;;11.85;10.57;;;;;;;12.76;100.00;100503.31;5014561;28;20084;-79
2021/09/10 04:34:56;;;;;;;13.60;11.13;;;;;;;12.79;100.00;100505.00;5033129;28;20065;-79
2021/09/10 04:37:23;;;;;;;13.05;10.68;;;;;;;12.81;100.00;100501.38;5033347;28;20453;-79
2021/09/10 04:39:50;;;;;;;13.05;10.52;;;;;;;12.80;100.00;100504.94;5000588;28;20065;-79
2021/09/10 04:42:17;;;;;;;11.85;10.57;;;;;;;12.82;100.00;100510.19;4997678;28;20053;-79
2021/09/10 04:44:43;;;;;;;12.75;11.13;;;;;;;12.84;100.00;100503.06;5013887;28;20410;-79
2021/09/10 04:47:10;;;;;;;13.32;10.73;;;;;;;12.83;100.00;100502.19;5013554;28;20056;-79
2021/09/10 04:49:37;;;;;;;12.45;11.10;;;;;;;12.83;100.00;100507.50;5008075;28;20037;-80
2021/09/10 04:52:03;;;;;;;11.93;10.73;;;;;;;12.83;100.00;100510.16;5016721;28;20049;-80
2021/09/10 04:54:30;;;;;;;13.13;11.05;;;;;;;12.85;100.00;100500.34;5034832;28;20033;-79
2021/09/10 04:56:57;;;;;;;14.73;11.10;;;;;;;12.85;100.00;100512.75;5029960;28;20095;-79
2021/09/10 04:59:24;;;;;;;12.40;10.38;;;;;;;12.84;100.00;100505.72;5012005;28;20048;-79
2021/09/10 05:01:51;;;;;;;10.85;9.75;;;;;;;12.86;100.00;100518.03;5031664;28;20049;-79
2021/09/10 05:04:18;;;;;;;14.13;10.93;;;;;;;12.87;100.00;100517.09;5034158;28;20064;-79
2021/09/10 05:06:44;;;;;;;11.93;10.55;;;;;;;12.91;100.00;100516.06;5012520;28;20052;-79
2021/09/10 05:09:12;;;;;;;13.57;11.30;;;;;;;12.93;100.00;100522.19;5029613;28;20056;-79
2021/09/10 05:11:40;;;;;;;15.07;11.75;;;;;;;12.96;100.00;100518.59;4993345;28;20441;-80
2021/09/10 05:14:09;;;;;;;14.73;11.90;;;;;;;12.97;100.00;100512.38;5032123;28;20498;-80
2021/09/10 05:16:36;;;;;;;12.93;11.52;;;;;;;13.02;100.00;100523.66;5034019;28;20537;-81
2021/09/10 05:19:03;;;;;;;12.80;10.77;;;;;;;13.07;100.00;100537.66;5032177;28;20048;-80
2021/09/10 05:21:31;;;;;;;12.60;11.30;;;;;;;13.14;100.00;100533.03;5017614;28;20103;-80
2021/09/10 05:23:58;;;;;;;14.57;11.18;;;;;;;13.19;100.00;100525.75;5032311;28;20052;-81
2021/09/10 05:26:25;;;;;;;15.15;12.45;;;;;;;13.27;100.00;100529.06;4999701;28;20041;-80
2021/09/10 05:28:51;;;;;;;14.88;12.52;;;;;;;13.29;100.00;100527.25;4997352;28;20045;-80
2021/09/10 05:31:18;;;;;;;14.40;11.77;;;;;;;13.33;100.00;100525.34;5033358;28;20140;-81
2021/09/10 05:33:45;;;;;;;13.35;11.38;;;;;;;13.38;100.00;100529.59;5025317;28;20091;-80
2021/09/10 05:36:11;;;;;;;13.38;11.98;;;;;;;13.43;100.00;100529.41;5012758;28;20040;-80
2021/09/10 05:38:38;;;;;;;13.75;11.93;;;;;;;13.48;100.00;100525.69;4996115;28;20045;-81
2021/09/10 05:41:05;;;;;;;17.65;11.48;;;;;;;13.55;100.00;100536.09;5001989;28;20041;-81
2021/09/10 05:43:32;;;;;;;13.88;12.13;;;;;;;13.59;100.00;100538.59;5003729;28;20045;-81
2021/09/10 05:45:59;;;;;;;16.77;12.20;;;;;;;13.64;100.00;100546.41;5010485;28;20061;-81
2021/09/10 05:48:26;;;;;;;16.40;12.38;;;;;;;13.69;100.00;100529.38;4998492;28;20049;-81
2021/09/10 05:50:53;;;;;;;15.77;13.02;;;;;;;13.75;100.00;100533.59;4991156;28;20046;-80
2021/09/10 05:53:19;;;;;;;14.70;12.73;;;;;;;13.78;100.00;100538.78;4987852;28;20115;-81
2021/09/10 05:55:46;;;;;;;13.40;11.73;;;;;;;13.84;100.00;100535.94;5005281;28;20048;-80
2021/09/10 05:58:12;;;;;;;17.70;12.73;;;;;;;13.90;100.00;100540.16;5011908;28;20041;-81
2021/09/10 06:00:39;;;;;;;17.33;12.48;;;;;;;13.94;100.00;100539.13;5015578;28;20052;-80
2021/09/10 06:03:06;;;;;;;15.57;13.25;;;;;;;13.95;100.00;100539.06;5015770;28;20136;-80
2021/09/10 06:05:33;;;;;;;14.45;12.05;;;;;;;13.99;100.00;100540.69;5016554;28;20045;-80
2021/09/10 06:08:01;;;;;;;17.50;12.52;;;;;;;14.05;100.00;100539.63;5030848;22;20060;-81
2021/09/10 06:10:27;;;;;;;14.10;11.65;;;;;;;14.09;100.00;100542.09;5009516;28;20571;-81
2021/09/10 06:12:54;;;;;;;13.15;11.60;;;;;;;14.12;100.00;100541.09;5018717;28;20049;-83
2021/09/10 06:15:21;;;;;;;12.90;11.50;;;;;;;14.17;100.00;100543.59;5013752;28;20469;-82
2021/09/10 06:17:48;;;;;;;13.70;11.45;;;;;;;14.23;100.00;100544.25;5013084;28;20038;-82
2021/09/10 06:20:15;;;;;;;16.02;12.43;;;;;;;14.28;100.00;100544.06;5006277;28;20046;-82
2021/09/10 06:22:42;;;;;;;12.60;11.30;;;;;;;14.61;100.00;100540.13;5010197;28;20037;-82
2021/09/10 06:25:09;;;;;;;12.77;10.48;;;;;;;14.90;100.00;100540.81;4998875;28;20054;-82
2021/09/10 06:27:41;;;;;;;11.52;10.32;;;;;;;15.05;100.00;100544.59;5013517;28;20037;-82
2021/09/10 06:30:08;;;;;;;11.60;10.20;;;;;;;15.15;100.00;100549.50;4995972;28;20049;-82
2021/09/10 06:32:35;;;;;;;12.23;10.93;;;;;;;15.18;100.00;100541.41;5008299;28;20045;-83
2021/09/10 06:35:02;;;;;;;11.73;10.07;;;;;;;15.50;100.00;100549.84;5002633;28;20038;-83
2021/09/10 06:37:29;;;;;;;11.05;9.18;;;;;;;16.16;100.00;100546.97;4987694;28;20550;-83
2021/09/10 06:39:56;;;;;;;10.88;9.52;;;;;;;16.76;100.00;100548.63;5024301;28;20041;-83
2021/09/10 06:42:22;;;;;;;11.95;9.27;;;;;;;17.06;99.25;100548.94;5014669;28;20125;-82
2021/09/10 06:44:51;;;;;;;10.48;9.35;;;;;;;17.60;95.25;100540.91;4979105;28;20052;-83
2021/09/10 06:47:18;;;;;;;10.77;9.00;;;;;;;18.32;90.79;100551.34;4996439;28;20042;-82
2021/09/10 06:49:46;;;;;;;10.20;9.07;;;;;;;18.84;86.88;100546.72;4988659;28;20132;-82
2021/09/10 06:52:13;;;;;;;12.88;7.90;;;;;;;19.45;83.48;100553.00;5009120;28;20042;-84
2021/09/10 06:54:40;;;;;;;11.70;9.30;;;;;;;19.81;81.05;100557.16;5009769;28;20188;-82
2021/09/10 06:57:07;;;;;;;11.43;10.10;;;;;;;20.27;79.58;100560.56;4993796;28;20525;-83
2021/09/10 06:59:34;;;;;;;10.30;9.30;;;;;;;20.69;77.04;100557.03;5001226;28;20053;-83
2021/09/10 07:02:01;;;;;;;12.63;11.35;;;;;;;21.24;75.94;100557.94;5012906;28;20053;-82
2021/09/10 07:04:28;;;;;;;11.77;10.43;;;;;;;21.45;75.24;100556.53;5010445;28;20057;-83
2021/09/10 07:06:55;;;;;;;11.60;10.40;;;;;;;21.51;74.59;100564.16;5023252;28;20042;-82
2021/09/10 07:09:23;;;;;;;12.40;11.18;;;;;;;21.60;73.90;100560.84;5002870;28;20628;-82
2021/09/10 07:11:50;;;;;;;12.85;10.65;;;;;;;21.65;74.87;100571.31;4996295;28;20474;-83
2021/09/10 07:14:17;;;;;;;12.40;11.10;;;;;;;21.69;74.43;100575.50;4988515;28;20056;-82
2021/09/10 07:16:43;;;;;;;11.57;10.48;;;;;;;21.77;74.60;100575.84;4976922;28;20042;-82
2021/09/10 07:19:10;;;;;;;14.30;11.68;;;;;;;21.84;73.17;100585.22;5014477;28;20060;-83
2021/09/10 07:21:37;;;;;;;12.73;11.52;;;;;;;22.01;72.63;100578.66;5015708;28;20046;-83
2021/09/10 07:24:04;;;;;;;14.25;10.75;;;;;;;21.73;73.61;100586.94;4996294;28;20042;-82
2021/09/10 07:26:31;;;;;;;12.40;11.10;;;;;;;21.39;75.45;100597.25;5014597;28;20037;-82
2021/09/10 07:28:58;;;;;;;14.02;12.55;;;;;;;20.83;77.42;100598.22;4981328;28;20057;-82
2021/09/10 07:31:25;;;;;;;12.35;10.98;;;;;;;20.88;78.86;100599.66;4986837;28;20046;-81
2021/09/10 07:33:51;;;;;;;12.63;10.00;;;;;;;20.88;78.95;100596.13;4984303;28;20054;-82
2021/09/10 07:36:20;;;;;;;12.18;11.07;;;;;;;20.97;79.88;100600.91;5014910;28;20069;-82
2021/09/10 07:38:47;;;;;;;11.30;10.20;;;;;;;21.02;79.77;100598.75;5019156;28;20403;-81
2021/09/10 07:41:14;;;;;;;13.98;11.88;;;;;;;21.06;78.37;100589.56;4988983;28;20048;-80
2021/09/10 07:43:40;;;;;;;12.98;11.32;;;;;;;21.05;78.79;100593.22;4991016;28;20042;-81
2021/09/10 07:46:07;;;;;;;12.80;11.35;;;;;;;21.01;78.82;100589.84;4993472;28;20156;-83
2021/09/10 07:48:34;;;;;;;13.65;11.80;;;;;;;21.11;80.02;100586.59;4981009;28;20037;-81
2021/09/10 07:51:01;;;;;;;12.80;11.35;;;;;;;21.12;81.40;100586.47;4986619;28;20502;-81
2021/09/10 07:53:28;;;;;;;14.52;12.35;;;;;;;21.15;80.05;100591.63;5007387;28;20041;-81
2021/09/10 07:55:55;;;;;;;12.88;11.52;;;;;;;21.06;80.78;100587.72;4976480;28;20042;-81
2021/09/10 07:58:22;;;;;;;14.65;12.43;;;;;;;21.29;79.05;100590.78;4974201;28;20033;-81
2021/09/10 08:00:49;;;;;;;12.25;10.90;;;;;;;21.30;78.50;100592.50;4994089;28;20049;-80
2021/09/10 08:03:19;;;;;;;14.23;12.73;;;;;;;21.29;80.18;100591.63;5025106;28;20608;-81
2021/09/10 08:05:49;;;;;;;11.63;10.52;;;;;;;21.23;80.70;100588.44;4976043;28;20172;-81
2021/09/10 08:08:16;;;;;;;13.43;11.73;;;;;;;21.35;79.44;100601.94;4991845;28;20029;-81
2021/09/10 08:10:43;;;;;;;15.07;13.48;;;;;;;21.38;80.84;100608.13;4998019;28;20038;-80
2021/09/10 08:13:13;;;;;;;13.20;10.30;;;;;;;21.41;80.96;100605.22;4986472;28;20053;-82
2021/09/10 08:15:41;;;;;;;12.15;10.98;;;;;;;21.40;81.10;100606.19;4998974;28;20120;-81
2021/09/10 08:18:08;;;;;;;14.57;11.48;;;;;;;21.43;82.48;100604.13;4996068;28;20104;-82
2021/09/10 08:20:35;;;;;;;13.30;11.27;;;;;;;21.57;83.43;100598.72;5007168;28;20779;-80
2021/09/10 08:23:02;;;;;;;14.43;12.18;;;;;;;21.75;81.04;100604.66;4996796;28;20486;-81
2021/09/10 08:25:28;;;;;;;13.73;11.13;;;;;;;21.73;79.39;100603.91;5013765;28;20052;-81
2021/09/10 08:27:55;;;;;;;16.42;12.35;;;;;;;21.66;81.21;100613.34;5006782;28;20534;-80
2021/09/10 08:30:22;;;;;;;12.63;11.32;;;;;;;21.79;78.40;100616.97;4973913;28;20057;-82
2021/09/10 08:32:50;;;;;;;13.15;11.23;;;;;;;21.77;79.72;100609.94;4995036;28;20045;-80
2021/09/10 08:35:17;;;;;;;13.43;11.88;;;;;;;21.76;79.76;100606.38;5016097;28;20047;-80
2021/09/10 08:37:44;;;;;;;15.45;12.68;;;;;;;21.82;80.53;100607.81;4992762;28;20410;-80
2021/09/10 08:40:11;;;;;;;14.07;12.32;;;;;;;22.00;79.96;100613.75;4996263;28;20038;-80
2021/09/10 08:42:37;;;;;;;12.70;11.05;;;;;;;22.05;80.07;100617.00;5009080;28;20038;-79
2021/09/10 08:45:08;;;;;;;13.27;11.55;;;;;;;22.12;78.50;100611.13;4988582;28;20111;-79
2021/09/10 08:47:34;;;;;;;12.73;11.43;;;;;;;22.20;79.39;100607.91;4996275;28;20470;-80
2021/09/10 08:50:01;;;;;;;13.85;12.30;;;;;;;22.30;78.26;100611.66;4983551;28;20046;-80
2021/09/10 08:52:28;;;;;;;14.38;11.73;;;;;;;22.52;77.58;100607.44;4973050;28;20037;-78
2021/09/10 08:54:54;;;;;;;14.75;12.05;;;;;;;22.84;74.95;100613.22;5009556;28;20079;-79
2021/09/10 08:57:23;;;;;;;13.18;11.88;;;;;;;22.78;75.63;100606.44;4989088;28;20041;-79
2021/09/10 09:00:02;;;;;;;14.48;11.55;;;;;;;22.81;75.61;100606.25;5020102;28;20037;-79
2021/09/10 09:02:29;;;;;;;17.85;12.43;;;;;;;22.93;76.91;100607.19;4979231;28;20046;-79
2021/09/10 09:04:59;;;;;;;15.55;11.75;;;;;;;23.07;76.18;100606.19;4986530;28;20046;-80
2021/09/10 09:07:28;;;;;;;13.68;12.23;;;;;;;23.39;72.75;100612.78;5006823;28;20042;-79
2021/09/10 09:09:58;;;;;;;14.18;12.65;;;;;;;23.45;73.45;100606.03;5012869;28;20045;-79
2021/09/10 09:12:40;;;;;;;13.30;12.00;;;;;;;23.62;72.94;100605.66;5020523;28;20089;-80
2021/09/10 09:15:16;;;;;;;14.00;11.40;;;;;;;23.82;74.50;100609.56;5002621;28;20052;-80
2021/09/10 09:17:44;;;;;;;12.65;11.35;;;;;;;24.06;70.44;100612.22;4994212;28;20292;-80
2021/09/10 09:20:20;;;;;;;13.85;11.77;;;;;;;24.25;69.78;100607.09;4991041;28;20465;-78
2021/09/10 09:22:56;;;;;;;14.40;12.48;;;;;;;24.35;70.26;100612.66;4993801;28;20082;-78
2021/09/10 09:25:45;;;;;;;13.50;12.10;;;;;;;24.64;68.62;100613.91;5022421;28;20045;-78
2021/09/10 09:28:16;;;;;;;12.27;10.90;;;;;;;24.78;68.49;100606.53;5019958;28;20041;-80
2021/09/10 09:30:44;;;;;;;12.32;11.13;;;;;;;24.88;68.47;100610.19;5010884;28;20577;-81
2021/09/10 09:33:14;;;;;;;11.45;10.25;;;;;;;25.03;66.62;100611.69;4997279;28;20045;-79
2021/09/10 09:35:47;;;;;;;12.65;11.07;;;;;;;25.13;66.02;100611.78;4993258;28;20046;-80
2021/09/10 09:38:20;;;;;;;11.70;10.60;;;;;;;25.26;65.78;100607.97;5012666;28;20060;-79
2021/09/10 09:40:58;;;;;;;13.02;11.80;;;;;;;25.43;63.69;100606.56;5005303;28;20052;-81
2021/09/10 09:43:30;;;;;;;13.73;11.02;;;;;;;25.44;64.70;100621.78;4996067;28;20696;-81
2021/09/10 09:45:58;;;;;;;22.05;11.55;;;;;;;25.55;65.55;100620.88;4979087;28;20042;-81
2021/09/10 09:48:27;;;;;;;11.65;10.07;;;;;;;25.69;65.52;100612.47;5007613;28;20136;-81
2021/09/10 09:50:58;;;;;;;11.82;10.18;;;;;;;25.83;64.03;100618.63;5007543;28;20036;-81
2021/09/10 09:53:25;;;;;;;12.20;10.43;;;;;;;25.91;63.12;100613.41;4985471;28;20399;-79
2021/09/10 09:55:52;;;;;;;36.65;12.80;;;;;;;26.02;64.30;100619.59;5012054;28;20041;-79
2021/09/10 09:58:19;;;;;;;13.02;10.02;;;;;;;26.19;62.55;100626.28;4999216;28;20094;-80
2021/09/10 10:00:47;;;;;;;9.90;8.90;;;;;;;26.28;63.67;100617.34;4993718;28;20046;-81
2021/09/10 10:03:14;;;;;;;10.85;9.15;;;;;;;26.38;62.34;100623.72;5012077;28;20100;-80
2021/09/10 10:05:48;;;;;;;11.05;9.95;;;;;;;26.34;60.94;100616.81;5024464;28;20091;-84
2021/09/10 10:08:19;;;;;;;9.45;8.55;;;;;;;26.43;61.76;100615.19;4991399;28;20044;-83
2021/09/10 10:10:49;;;;;;;11.85;9.95;;;;;;;26.45;60.22;100618.63;4992916;28;20041;-79
2021/09/10 10:13:28;;;;;;;12.43;9.15;;;;;;;26.62;59.27;100623.41;4994634;28;20041;-80
2021/09/10 10:15:57;;;;;;;10.23;8.68;;;;;;;26.68;59.25;100627.44;5017091;28;20069;-82
2021/09/10 10:18:44;;;;;;;12.00;9.52;;;;;;;26.55;59.61;100630.38;4999061;28;20097;-82
2021/09/10 10:21:14;;;;;;;9.07;8.23;;;;;;;26.65;59.48;100623.16;4995410;28;20045;-80
2021/09/10 10:23:44;;;;;;;9.63;8.63;;;;;;;26.77;59.95;100631.19;5009217;28;20091;-79
2021/09/10 10:26:35;;;;;;;10.43;9.02;;;;;;;26.91;58.80;100630.81;5000529;28;20740;-80
2021/09/10 10:29:11;;;;;;;24.77;9.35;;;;;;;26.99;58.88;100624.69;5001723;28;20048;-79
2021/09/10 10:32:02;;;;;;;10.00;9.00;;;;;;;27.06;58.57;100628.59;5003613;28;20045;-80
2021/09/10 10:34:30;;;;;;;9.57;8.43;;;;;;;26.97;57.62;100618.56;4996423;28;20038;-82
2021/09/10 10:36:57;;;;;;;9.10;8.18;;;;;;;27.04;59.14;100617.03;4994042;28;20050;-81
2021/09/10 10:39:31;;;;;;;9.15;8.15;;;;;;;27.04;56.11;100622.47;4989840;28;20034;-82
2021/09/10 10:42:02;;;;;;;10.25;8.82;;;;;;;27.12;58.23;100612.63;4991671;28;21276;-80
2021/09/10 10:44:35;;;;;;;9.32;8.43;;;;;;;27.21;57.69;100613.66;4993369;28;20085;-81
2021/09/10 10:47:06;;;;;;;9.38;8.05;;;;;;;27.32;57.41;100613.53;5009642;28;20052;-81
2021/09/10 10:49:35;;;;;;;10.88;8.15;;;;;;;27.48;56.39;100618.41;4981958;28;20836;-83
2021/09/10 10:52:28;;;;;;;7.95;7.13;;;;;;;27.44;56.24;100611.56;5008477;28;20050;-82
2021/09/10 10:55:36;;;;;;;11.02;8.65;;;;;;;27.52;55.69;100619.84;5004358;28;20072;-82
2021/09/10 10:58:22;;;;;;;8.40;7.28;;;;;;;27.64;55.01;100617.84;5010246;28;20108;-80
2021/09/10 11:00:52;;;;;;;7.20;6.43;;;;;;;27.54;55.25;100617.00;4985166;28;20400;-79
2021/09/10 11:03:21;;;;;;;9.80;7.03;;;;;;;27.60;55.95;100616.44;4976740;28;20053;-82
2021/09/10 11:05:50;;;;;;;10.15;7.07;;;;;;;27.76;54.05;100620.31;5002944;28;20053;-80
2021/09/10 11:08:38;;;;;;;8.05;7.25;;;;;;;27.85;55.08;100613.19;4979970;28;20057;-80
2021/09/10 11:11:05;;;;;;;8.13;6.97;;;;;;;27.87;54.93;100607.59;4986137;28;20048;-80